createdAt,value
2023-01-29T00:01:43.411Z,4.00
2023-01-29T00:04:45.956Z,4.30
2023-01-29T00:07:48.412Z,3.67
2023-01-29T00:10:50.601Z,4.50
2023-01-29T00:13:53.756Z,4.27
2023-01-29T00:16:55.924Z,3.97
2023-01-29T00:19:58.229Z,3.73
2023-01-29T00:23:00.544Z,4.40
2023-01-29T00:26:02.810Z,3.97
2023-01-29T00:29:06.011Z,3.60
2023-01-29T00:32:08.209Z,6.07
2023-01-29T00:35:10.830Z,3.00
2023-01-29T00:38:13.190Z,3.47
2023-01-29T00:41:34.483Z,4.43
2023-01-29T00:44:55.052Z,3.53
2023-01-29T00:47:57.184Z,4.30
2023-01-29T00:50:59.351Z,4.83
2023-01-29T00:54:01.573Z,3.43
2023-01-29T00:57:04.767Z,4.27
2023-01-29T01:00:12.869Z,5.17
2023-01-29T01:03:15.251Z,3.67
2023-01-29T01:06:17.269Z,4.63
2023-01-29T01:09:37.703Z,5.13
2023-01-29T01:12:40.036Z,4.87
2023-01-29T01:15:42.439Z,4.53
2023-01-29T01:18:44.653Z,4.30
2023-01-29T01:21:48.453Z,4.70
2023-01-29T01:24:50.543Z,4.57
2023-01-29T01:27:54.305Z,6.10
2023-01-29T01:30:56.494Z,4.50
2023-01-29T01:33:58.624Z,4.20
2023-01-29T01:37:04.923Z,4.83
2023-01-29T01:40:18.425Z,4.30
2023-01-29T01:43:20.855Z,4.47
2023-01-29T01:46:35.291Z,5.07
2023-01-29T01:49:37.646Z,5.10
2023-01-29T01:52:45.347Z,4.40
2023-01-29T01:55:54.384Z,4.83
2023-01-29T01:58:59.421Z,4.83
2023-01-29T02:02:20.257Z,3.87
2023-01-29T02:05:40.970Z,4.63
2023-01-29T02:09:14.804Z,4.33
2023-01-29T02:12:18.042Z,4.93
2023-01-29T02:15:20.287Z,4.80
2023-01-29T02:18:22.703Z,4.57
2023-01-29T02:21:30.713Z,3.70
2023-01-29T02:25:13.961Z,3.73
2023-01-29T02:29:20.740Z,4.97
2023-01-29T02:32:54.418Z,4.18
2023-01-29T02:36:01.542Z,3.87
2023-01-29T02:39:27.741Z,4.20
2023-01-29T02:42:44.972Z,3.70
2023-01-29T02:46:01.434Z,4.17
2023-01-29T02:49:22.328Z,4.70
2023-01-29T02:52:44.803Z,4.43
2023-01-29T02:55:53.829Z,4.67
2023-01-29T02:59:05.196Z,3.83
2023-01-29T03:02:13.879Z,3.60
2023-01-29T03:05:23.573Z,4.07
2023-01-29T03:08:50.276Z,4.17
2023-01-29T03:12:02.707Z,2.50
2023-01-29T03:15:25.248Z,3.03
2023-01-29T03:18:32.427Z,2.10
2023-01-29T03:21:55.396Z,3.00
2023-01-29T03:25:18.713Z,2.63
2023-01-29T03:28:42.252Z,2.10
2023-01-29T03:32:03.698Z,3.10
2023-01-29T03:35:08.321Z,2.43
2023-01-29T03:38:12.106Z,2.30
2023-01-29T03:41:29.387Z,2.73
2023-01-29T03:44:57.747Z,3.47
2023-01-29T03:48:13.485Z,3.77
2023-01-29T03:51:17.893Z,3.43
2023-01-29T03:54:30.325Z,3.38
2023-01-29T03:57:38.975Z,2.97
2023-01-29T04:00:52.397Z,3.57
2023-01-29T04:04:14.463Z,3.43
2023-01-29T04:07:24.549Z,2.33
2023-01-29T04:10:29.904Z,2.77
2023-01-29T04:13:33.955Z,3.10
2023-01-29T04:16:41.149Z,3.07
2023-01-29T04:19:44.078Z,2.50
2023-01-29T04:22:48.867Z,3.57
2023-01-29T04:26:21.846Z,2.83
2023-01-29T04:29:39.052Z,3.37
2023-01-29T04:32:59.937Z,2.60
2023-01-29T04:36:30.008Z,3.57
2023-01-29T04:39:33.817Z,3.97
2023-01-29T04:43:09.133Z,2.53
2023-01-29T04:46:17.627Z,2.65
2023-01-29T04:49:34.444Z,3.77
2023-01-29T04:53:04.435Z,2.90
2023-01-29T04:56:25.881Z,2.83
2023-01-29T04:59:45.514Z,2.73
2023-01-29T05:02:48.355Z,2.93
2023-01-29T05:05:52.931Z,2.87
2023-01-29T05:08:56.738Z,2.92
2023-01-29T05:11:59.274Z,2.60
2023-01-29T05:15:03.603Z,1.87
2023-01-29T05:18:09.080Z,2.40
2023-01-29T05:21:11.650Z,2.10
2023-01-29T05:24:24.569Z,2.07
2023-01-29T05:27:53.059Z,2.47
2023-01-29T05:30:57.370Z,2.40
2023-01-29T05:33:59.569Z,2.17
2023-01-29T05:37:01.855Z,2.20
2023-01-29T05:40:04.448Z,2.90
2023-01-29T05:43:14.346Z,1.90
2023-01-29T05:46:16.486Z,1.73
2023-01-29T05:49:20.642Z,2.27
2023-01-29T05:52:22.685Z,1.83
2023-01-29T05:55:24.757Z,2.37
2023-01-29T05:58:26.898Z,2.67
2023-01-29T06:01:29.076Z,2.57
2023-01-29T06:04:31.176Z,1.90
2023-01-29T06:07:33.785Z,1.70
2023-01-29T06:10:35.976Z,2.00
2023-01-29T06:13:38.364Z,2.23
2023-01-29T06:16:41.379Z,2.40
2023-01-29T06:19:43.481Z,2.17
2023-01-29T06:22:45.659Z,1.67
2023-01-29T06:25:47.800Z,1.90
2023-01-29T06:28:50.746Z,1.53
2023-01-29T06:31:52.938Z,1.30
2023-01-29T06:34:55.049Z,1.87
2023-01-29T06:38:00.136Z,1.45
2023-01-29T06:41:12.438Z,0.83
2023-01-29T06:44:14.553Z,1.27
2023-01-29T06:47:16.588Z,1.30
2023-01-29T06:50:18.995Z,1.07
2023-01-29T06:53:22.417Z,1.17
2023-01-29T06:56:25.145Z,0.80
2023-01-29T06:59:27.193Z,0.90
2023-01-29T07:02:29.838Z,1.47
2023-01-29T07:05:32.864Z,0.77
2023-01-29T07:08:39.914Z,1.00
2023-01-29T07:11:43.121Z,0.90
2023-01-29T07:14:45.433Z,0.83
2023-01-29T07:18:02.023Z,0.70
2023-01-29T07:21:07.672Z,0.60
2023-01-29T07:24:09.868Z,0.67
2023-01-29T07:27:12.134Z,0.80
2023-01-29T07:30:14.952Z,0.67
2023-01-29T07:33:17.205Z,1.10
2023-01-29T07:36:19.322Z,0.67
2023-01-29T07:39:21.360Z,0.80
2023-01-29T07:42:23.682Z,0.60
2023-01-29T07:45:25.983Z,0.87
2023-01-29T07:48:28.056Z,0.90
2023-01-29T07:51:31.944Z,0.60
2023-01-29T07:54:34.090Z,0.63
2023-01-29T07:57:36.166Z,0.60
2023-01-29T08:00:38.395Z,0.53
2023-01-29T08:03:40.516Z,0.50
2023-01-29T08:06:42.588Z,0.80
2023-01-29T08:09:44.726Z,0.67
2023-01-29T08:12:46.747Z,0.73
2023-01-29T08:15:48.888Z,0.53
2023-01-29T08:18:50.929Z,0.80
2023-01-29T08:21:52.974Z,1.00
2023-01-29T08:25:06.347Z,1.30
2023-01-29T08:28:11.848Z,0.90
2023-01-29T08:31:18.346Z,0.80
2023-01-29T08:34:20.456Z,0.60
2023-01-29T08:37:22.604Z,1.83
2023-01-29T08:40:25.050Z,0.77
2023-01-29T08:43:27.099Z,0.60
2023-01-29T08:46:29.178Z,0.93
2023-01-29T08:49:31.323Z,1.10
2023-01-29T08:52:33.398Z,0.90
2023-01-29T08:55:37.465Z,1.27
2023-01-29T08:58:39.611Z,0.80
2023-01-29T09:01:41.685Z,1.00
2023-01-29T09:04:43.716Z,1.97
2023-01-29T09:07:45.777Z,1.30
2023-01-29T09:10:48.537Z,0.83
2023-01-29T09:13:50.692Z,1.50
2023-01-29T09:16:52.810Z,0.80
2023-01-29T09:19:54.878Z,0.70
2023-01-29T09:22:59.252Z,1.23
2023-01-29T09:26:01.715Z,0.80
2023-01-29T09:29:03.770Z,0.87
2023-01-29T09:32:07.039Z,0.60
2023-01-29T09:35:09.923Z,0.93
2023-01-29T09:38:13.734Z,1.10
2023-01-29T09:41:40.369Z,1.00
2023-01-29T09:45:04.006Z,1.08
2023-01-29T09:48:12.734Z,1.38
2023-01-29T09:51:41.997Z,1.30
2023-01-29T09:54:52.976Z,1.52
2023-01-29T09:58:13.451Z,1.35
2023-01-29T10:01:23.602Z,1.00
2023-01-29T10:04:25.784Z,0.85
2023-01-29T10:08:05.241Z,0.70
2023-01-29T10:11:21.591Z,0.60
2023-01-29T10:14:57.672Z,0.90
2023-01-29T10:18:11.164Z,0.88
2023-01-29T10:21:35.018Z,0.63
2023-01-29T10:24:56.103Z,0.70
2023-01-29T10:28:00.425Z,1.00
2023-01-29T10:31:21.038Z,0.73
2023-01-29T10:35:09.464Z,0.70
2023-01-29T10:38:31.764Z,0.95
2023-01-29T10:41:54.557Z,1.08
2023-01-29T10:45:21.072Z,0.67
2023-01-29T10:48:50.084Z,0.77
2023-01-29T10:52:20.985Z,1.00
2023-01-29T10:55:41.197Z,0.60
2023-01-29T10:58:52.293Z,0.60
2023-01-29T11:02:03.394Z,0.80
2023-01-29T11:05:19.554Z,1.48
2023-01-29T11:09:00.156Z,0.93
2023-01-29T11:12:05.457Z,1.43
2023-01-29T11:15:18.940Z,0.90
2023-01-29T11:18:21.294Z,2.00
2023-01-29T11:21:24.585Z,1.00
2023-01-29T11:24:27.909Z,1.52
2023-01-29T11:27:35.520Z,1.42
2023-01-29T11:30:42.111Z,1.77
2023-01-29T11:33:45.498Z,2.38
2023-01-29T11:37:04.671Z,2.72
2023-01-29T11:40:27.925Z,1.65
2023-01-29T11:43:31.680Z,1.77
2023-01-29T11:46:33.827Z,1.37
2023-01-29T11:49:36.403Z,1.90
2023-01-29T11:52:43.026Z,1.50
2023-01-29T11:55:50.764Z,1.47
2023-01-29T11:58:57.646Z,1.00
2023-01-29T12:02:19.020Z,1.50
2023-01-29T12:05:25.063Z,1.77
2023-01-29T12:08:33.901Z,1.57
2023-01-29T12:11:36.543Z,1.27
2023-01-29T12:14:38.880Z,1.50
2023-01-29T12:17:42.583Z,1.60
2023-01-29T12:20:55.225Z,1.90
2023-01-29T12:24:20.494Z,1.87
2023-01-29T12:27:35.947Z,1.60
2023-01-29T12:30:59.539Z,1.43
2023-01-29T12:34:23.761Z,1.77
2023-01-29T12:38:01.016Z,1.70
2023-01-29T12:41:28.658Z,2.33
2023-01-29T12:44:42.683Z,2.80
2023-01-29T12:47:49.755Z,3.10
2023-01-29T12:50:54.152Z,3.20
2023-01-29T12:54:04.153Z,2.00
2023-01-29T12:57:34.830Z,2.03
2023-01-29T13:00:40.579Z,1.87
2023-01-29T13:03:56.227Z,2.00
2023-01-29T13:07:29.925Z,2.00
2023-01-29T13:10:38.684Z,2.13
2023-01-29T13:13:58.333Z,2.10
2023-01-29T13:17:18.506Z,1.60
2023-01-29T13:20:30.095Z,2.80
2023-01-29T13:23:37.936Z,2.77
2023-01-29T13:26:44.406Z,2.23
2023-01-29T13:29:46.632Z,2.63
2023-01-29T13:32:54.493Z,2.23
2023-01-29T13:36:00.256Z,2.10
2023-01-29T13:39:16.477Z,2.43
2023-01-29T13:42:43.700Z,1.97
2023-01-29T13:45:46.402Z,2.33
2023-01-29T13:48:51.028Z,2.43
2023-01-29T13:51:53.892Z,1.65
2023-01-29T13:55:04.218Z,1.97
2023-01-29T13:58:13.451Z,2.60
2023-01-29T14:01:15.509Z,1.80
2023-01-29T14:04:25.559Z,3.37
2023-01-29T14:07:45.944Z,2.47
2023-01-29T14:11:13.633Z,2.63
2023-01-29T14:14:47.874Z,1.70
2023-01-29T14:17:59.754Z,2.07
2023-01-29T14:21:06.798Z,1.93
2023-01-29T14:24:24.903Z,2.23
2023-01-29T14:27:27.712Z,2.47
2023-01-29T14:30:32.579Z,1.40
2023-01-29T14:33:41.738Z,2.15
2023-01-29T14:36:47.115Z,1.50
2023-01-29T14:39:55.057Z,1.20
2023-01-29T14:43:19.834Z,2.17
2023-01-29T14:46:34.102Z,1.55
2023-01-29T14:49:58.098Z,2.47
2023-01-29T14:53:18.482Z,2.20
2023-01-29T14:56:29.693Z,1.90
2023-01-29T14:59:46.663Z,2.63
2023-01-29T15:02:59.847Z,1.40
2023-01-29T15:06:06.530Z,1.40
2023-01-29T15:12:39.191Z,1.37
2023-01-29T15:15:55.967Z,2.00
2023-01-29T15:19:13.562Z,1.03
2023-01-29T15:22:18.360Z,1.60
2023-01-29T15:25:21.752Z,1.40
2023-01-29T15:28:24.303Z,1.43
2023-01-29T15:31:27.444Z,1.50
2023-01-29T15:34:29.683Z,1.40
2023-01-29T15:37:36.215Z,1.93
2023-01-29T15:40:38.275Z,3.20
2023-01-29T15:43:45.339Z,1.73
2023-01-29T15:46:52.936Z,1.63
2023-01-29T15:49:57.354Z,1.23
2023-01-29T15:53:04.234Z,1.70
2023-01-29T15:56:11.037Z,2.50
2023-01-29T15:59:24.997Z,1.67
2023-01-29T16:02:30.212Z,1.13
2023-01-29T16:05:33.248Z,1.33
2023-01-29T16:08:36.616Z,1.30
2023-01-29T16:11:39.896Z,1.27
2023-01-29T16:14:42.418Z,1.30
2023-01-29T16:17:46.076Z,2.77
2023-01-29T16:20:52.691Z,2.73
2023-01-29T16:24:02.200Z,4.03
2023-01-29T16:27:12.467Z,2.07
2023-01-29T16:30:16.999Z,3.80
2023-01-29T16:33:19.826Z,1.30
2023-01-29T16:36:28.050Z,1.70
2023-01-29T16:39:34.528Z,2.10
2023-01-29T16:42:37.861Z,1.37
2023-01-29T16:45:39.935Z,1.80
2023-01-29T16:48:42.003Z,1.33
2023-01-29T16:51:44.040Z,1.00
2023-01-29T16:54:46.093Z,1.10
2023-01-29T16:57:54.096Z,1.40
2023-01-29T17:01:03.262Z,0.77
2023-01-29T17:04:10.662Z,1.63
2023-01-29T17:07:18.585Z,1.37
2023-01-29T17:10:22.128Z,1.30
2023-01-29T17:13:45.446Z,0.93
2023-01-29T17:16:53.788Z,1.00
2023-01-29T17:19:55.817Z,1.47
2023-01-29T17:22:57.949Z,1.27
2023-01-29T17:26:00.207Z,1.20
2023-01-29T17:29:02.617Z,1.10
2023-01-29T17:32:05.049Z,1.53
2023-01-29T17:35:07.574Z,0.90
2023-01-29T17:38:24.991Z,1.53
2023-01-29T17:41:31.318Z,1.20
2023-01-29T17:44:34.502Z,1.43
2023-01-29T17:47:36.552Z,1.60
2023-01-29T17:50:41.110Z,2.40
2023-01-29T17:53:46.262Z,1.50
2023-01-29T17:56:49.849Z,1.70
2023-01-29T17:59:51.840Z,1.83
2023-01-29T18:02:54.482Z,1.90
2023-01-29T18:05:56.557Z,2.77
2023-01-29T18:08:58.625Z,2.20
2023-01-29T18:12:00.683Z,2.60
2023-01-29T18:15:02.759Z,2.10
2023-01-29T18:18:06.191Z,3.07
2023-01-29T18:21:08.245Z,3.10
2023-01-29T18:24:10.361Z,2.47
2023-01-29T18:27:13.383Z,2.30
2023-01-29T18:30:15.676Z,2.87
2023-01-29T18:33:18.166Z,3.20
2023-01-29T18:36:20.294Z,6.57
2023-01-29T18:39:22.432Z,3.57
2023-01-29T18:42:24.537Z,3.47
2023-01-29T18:45:29.880Z,3.53
2023-01-29T18:48:32.310Z,3.93
2023-01-29T18:51:34.869Z,3.87
2023-01-29T18:54:37.009Z,3.50
2023-01-29T18:58:28.026Z,8.43
2023-01-29T19:01:07.117Z,3.10
2023-01-29T19:04:09.288Z,5.77
2023-01-29T19:07:12.464Z,4.73
2023-01-29T19:10:16.985Z,3.93
2023-01-29T19:13:19.084Z,5.25
2023-01-29T19:16:21.182Z,4.30
2023-01-29T19:19:23.246Z,3.30
2023-01-29T19:22:25.371Z,2.90
2023-01-29T19:25:27.448Z,3.77
2023-01-29T19:28:29.507Z,4.10
2023-01-29T19:31:34.564Z,3.43
2023-01-29T19:34:36.919Z,3.77
2023-01-29T19:37:39.018Z,4.20
2023-01-29T19:40:41.419Z,4.47
2023-01-29T19:43:43.728Z,5.13
2023-01-29T19:46:46.935Z,5.23
2023-01-29T19:49:48.946Z,3.93
2023-01-29T19:52:52.586Z,10.63
2023-01-29T19:56:04.357Z,5.03
2023-01-29T19:59:07.505Z,4.87
2023-01-29T20:02:09.925Z,6.00
2023-01-29T20:05:13.220Z,5.20
2023-01-29T20:08:15.298Z,5.90
2023-01-29T20:11:20.410Z,5.17
2023-01-29T20:14:22.572Z,4.23
2023-01-29T20:17:24.724Z,3.80
2023-01-29T20:20:31.049Z,3.57
2023-01-29T20:23:38.124Z,3.07
2023-01-29T20:26:41.531Z,4.27
2023-01-29T20:29:45.374Z,2.47
2023-01-29T20:32:52.812Z,2.43
2023-01-29T20:35:59.486Z,4.03
2023-01-29T20:39:02.921Z,4.37
2023-01-29T20:42:05.097Z,4.57
2023-01-29T20:45:07.376Z,4.83
2023-01-29T20:48:09.524Z,4.27
2023-01-29T20:51:15.439Z,4.90
2023-01-29T20:54:17.588Z,3.83
2023-01-29T20:57:19.743Z,4.17
2023-01-29T21:00:22.041Z,3.83
2023-01-29T21:03:24.140Z,4.37
2023-01-29T21:06:26.497Z,4.43
2023-01-29T21:09:28.608Z,4.00
2023-01-29T21:12:30.793Z,4.03
2023-01-29T21:15:32.981Z,4.37
2023-01-29T21:22:51.153Z,4.13
2023-01-29T21:25:53.267Z,4.10
2023-01-29T21:28:55.479Z,3.90
2023-01-29T21:31:57.547Z,4.20
2023-01-29T21:34:59.498Z,4.50
2023-01-29T21:38:03.521Z,3.43
2023-01-29T21:41:08.964Z,4.33
2023-01-29T21:44:12.622Z,4.17
2023-01-29T21:47:15.558Z,4.17
2023-01-29T21:50:17.881Z,4.53
2023-01-29T21:53:20.357Z,5.23
2023-01-29T21:56:22.418Z,4.13
2023-01-29T21:59:24.481Z,3.93
2023-01-29T22:02:27.725Z,4.27
2023-01-29T22:05:29.774Z,4.67
2023-01-29T22:08:32.956Z,3.60
2023-01-29T22:11:35.085Z,4.37
2023-01-29T22:14:37.590Z,5.00
2023-01-29T22:17:41.414Z,3.33
2023-01-29T22:20:43.475Z,4.27
2023-01-29T22:23:49.540Z,3.60
2023-01-29T22:26:51.702Z,3.77
2023-01-29T22:29:53.779Z,4.07
2023-01-29T22:32:56.381Z,4.20
2023-01-29T22:35:58.630Z,4.17
2023-01-29T22:39:00.733Z,3.10
2023-01-29T22:42:02.797Z,3.97
2023-01-29T22:45:05.371Z,3.80
2023-01-29T22:48:08.288Z,4.33
2023-01-29T22:51:10.959Z,5.00
2023-01-29T22:54:15.051Z,4.00
2023-01-29T22:57:17.213Z,3.17
2023-01-29T23:00:19.996Z,3.40
2023-01-29T23:03:22.175Z,3.63
2023-01-29T23:06:24.595Z,3.30
2023-01-29T23:09:26.735Z,3.60
2023-01-29T23:12:29.148Z,3.10
2023-01-29T23:15:31.133Z,3.53
2023-01-29T23:18:33.809Z,4.47
2023-01-29T23:21:36.389Z,3.77
2023-01-29T23:24:38.416Z,3.37
2023-01-29T23:27:41.973Z,4.17
2023-01-29T23:30:45.271Z,3.60
2023-01-29T23:33:48.596Z,3.83
2023-01-29T23:36:50.628Z,4.00
2023-01-29T23:39:53.565Z,3.83
2023-01-29T23:42:56.465Z,3.70
2023-01-29T23:45:59.127Z,3.60
2023-01-29T23:49:01.443Z,3.37
2023-01-29T23:52:03.941Z,4.23
2023-01-29T23:55:06.548Z,3.40
2023-01-29T23:58:09.922Z,4.47
